Biotrans — JWPN — position and weather

sailwx.info

Track history (hours):
 
Tides and Currents Weather Stations Pressure Air Temp Water Temp Dewpoint Dewpoint Depression Visibility Wind Speed Wind Dir Waves Ship Positions

Biotrans

Last reported at 2015-May-25 20:33 UTC. Time now 2015-May-25 21:28 UTC.
Position N 69°38' E 018°57'.

Length 55 m; draft 5.5 m.

Type: Cargo ship. MMSI: 259260000.

Date/timePositionNaut miles runAvg speedWind from/ knotsBaromVisibWave heightAir tempDewpointWater temp
2015-May-25 20:33N 69°38' E 018°57'  
2015-May-22 13:31N 69°41' E 019°01'2 1.7
2015-May-22 12:32N 69°40' E 018°58'0 0.0
2015-May-22 11:33N 69°40' E 018°58'0 0.0
2015-May-22 10:33N 69°40' E 018°58'0 0.0
2015-May-22 09:33N 69°40' E 018°58'0 0.0
2015-May-22 08:33N 69°40' E 018°58'0 0.0
2015-May-22 07:33N 69°40' E 018°58'0 0.0
2015-May-22 06:33N 69°40' E 018°58'0 0.0
2015-May-22 05:33N 69°40' E 018°58'1 1.5
2015-May-22 04:33N 69°38' E 018°57'5 4.5
2015-May-22 03:32N 69°35' E 018°49'142 4.1
2015-May-20 17:08N 67°47' E 014°32'5 8.5
2015-May-20 16:33N 67°43' E 014°31'10 9.3
2015-May-20 15:28N 67°32' E 014°30'9 9.6
2015-May-20 14:33N 67°24' E 014°26'10 9.7
2015-May-20 13:33N 67°16' E 014°13'1010.0
2015-May-20 12:33N 67°07' E 013°60'10 9.7
2015-May-20 11:32N 67°00' E 013°41'9 9.2
2015-May-20 10:33N 66°54' E 013°25'25 5.1
2015-May-20 05:32N 66°31' E 012°58'9 9.1
2015-May-20 04:31N 66°21' E 012°56'8 8.6
2015-May-20 03:33N 66°16' E 012°41'6 2.8
2015-May-20 01:14N 66°09' E 012°41'6 8.5
2015-May-20 00:33N 66°14' E 012°33'61 3.1
2015-May-19 04:30N 65°15' E 011°55'9 8.9
2015-May-19 03:31N 65°07' E 011°48'8 8.2
2015-May-19 02:33N 65°00' E 011°37'8 8.5
2015-May-19 01:33N 64°55' E 011°22'8 8.0
2015-May-19 00:33N 64°49' E 011°09'7 6.1
2015-May-18 23:22N 64°42' E 011°16'5 2.7
2015-May-18 21:30N 64°37' E 011°15'47 7.9
2015-May-18 15:28N 64°05' E 009°55'7 7.8
2015-May-18 14:33N 63°59' E 009°47'8 7.9
2015-May-18 13:33N 63°51' E 009°40'7 6.0
2015-May-18 12:27N 63°45' E 009°39'0 0.0
2015-May-17 19:33N 63°45' E 009°39'7 6.0
2015-May-17 18:25N 63°52' E 009°40'69 3.9
2015-May-17 00:33N 64°49' E 011°09'9 9.4
2015-May-16 23:34N 64°56' E 011°25'9 8.8
2015-May-16 22:30N 65°02' E 011°42'8 8.7
2015-May-16 21:33N 65°09' E 011°50'68 6.1
2015-May-16 10:21N 66°15' E 012°32'7 8.3
2015-May-16 09:33N 66°18' E 012°46'7 7.4
2015-May-16 08:33N 66°24' E 012°58'32 7.8
2015-May-16 04:27N 66°54' E 013°26'7 7.5
2015-May-16 03:33N 66°59' E 013°36'8 8.5
2015-May-16 02:33N 67°04' E 013°54'8 8.2
2015-May-16 01:33N 67°11' E 014°05'8 8.4
2015-May-16 00:33N 67°18' E 014°16'8 8.2
2015-May-15 23:34N 67°25' E 014°27'17 8.2
2015-May-15 21:32N 67°42' E 014°31'  
Track history (hours):
 
Tides and Currents Weather Stations Pressure Air Temp Water Temp Dewpoint Dewpoint Depression Visibility Wind Speed Wind Dir Waves Ship Positions

Biotrans

Last reported at 2015-May-25 20:33 UTC. Time now 2015-May-25 21:28 UTC.
Position N 69°38' E 018°57'.

Length 55 m; draft 5.5 m.

Type: Cargo ship. MMSI: 259260000.

Date/timePositionNaut miles runAvg speedWind from/ knotsBaromVisibWave heightAir tempDewpointWater temp
2015-May-25 20:33N 69°38' E 018°57'  
2015-May-22 13:31N 69°41' E 019°01'2 1.7
2015-May-22 12:32N 69°40' E 018°58'0 0.0
2015-May-22 11:33N 69°40' E 018°58'0 0.0
2015-May-22 10:33N 69°40' E 018°58'0 0.0
2015-May-22 09:33N 69°40' E 018°58'0 0.0
2015-May-22 08:33N 69°40' E 018°58'0 0.0
2015-May-22 07:33N 69°40' E 018°58'0 0.0
2015-May-22 06:33N 69°40' E 018°58'0 0.0
2015-May-22 05:33N 69°40' E 018°58'1 1.5
2015-May-22 04:33N 69°38' E 018°57'5 4.5
2015-May-22 03:32N 69°35' E 018°49'142 4.1
2015-May-20 17:08N 67°47' E 014°32'5 8.5
2015-May-20 16:33N 67°43' E 014°31'10 9.3
2015-May-20 15:28N 67°32' E 014°30'9 9.6
2015-May-20 14:33N 67°24' E 014°26'10 9.7
2015-May-20 13:33N 67°16' E 014°13'1010.0
2015-May-20 12:33N 67°07' E 013°60'10 9.7
2015-May-20 11:32N 67°00' E 013°41'9 9.2
2015-May-20 10:33N 66°54' E 013°25'25 5.1
2015-May-20 05:32N 66°31' E 012°58'9 9.1
2015-May-20 04:31N 66°21' E 012°56'8 8.6
2015-May-20 03:33N 66°16' E 012°41'6 2.8
2015-May-20 01:14N 66°09' E 012°41'6 8.5
2015-May-20 00:33N 66°14' E 012°33'61 3.1
2015-May-19 04:30N 65°15' E 011°55'9 8.9
2015-May-19 03:31N 65°07' E 011°48'8 8.2
2015-May-19 02:33N 65°00' E 011°37'8 8.5
2015-May-19 01:33N 64°55' E 011°22'8 8.0
2015-May-19 00:33N 64°49' E 011°09'7 6.1
2015-May-18 23:22N 64°42' E 011°16'5 2.7
2015-May-18 21:30N 64°37' E 011°15'47 7.9
2015-May-18 15:28N 64°05' E 009°55'7 7.8
2015-May-18 14:33N 63°59' E 009°47'8 7.9
2015-May-18 13:33N 63°51' E 009°40'7 6.0
2015-May-18 12:27N 63°45' E 009°39'0 0.0
2015-May-17 19:33N 63°45' E 009°39'7 6.0
2015-May-17 18:25N 63°52' E 009°40'69 3.9
2015-May-17 00:33N 64°49' E 011°09'9 9.4
2015-May-16 23:34N 64°56' E 011°25'9 8.8
2015-May-16 22:30N 65°02' E 011°42'8 8.7
2015-May-16 21:33N 65°09' E 011°50'68 6.1
2015-May-16 10:21N 66°15' E 012°32'7 8.3
2015-May-16 09:33N 66°18' E 012°46'7 7.4
2015-May-16 08:33N 66°24' E 012°58'32 7.8
2015-May-16 04:27N 66°54' E 013°26'7 7.5
2015-May-16 03:33N 66°59' E 013°36'8 8.5
2015-May-16 02:33N 67°04' E 013°54'8 8.2
2015-May-16 01:33N 67°11' E 014°05'8 8.4
2015-May-16 00:33N 67°18' E 014°16'8 8.2
2015-May-15 23:34N 67°25' E 014°27'17 8.2
2015-May-15 21:32N 67°42' E 014°31'  

Dump ship's entire track history